Time;durP1;ratioP1;P1;durP2;ratioP2;P2;SDS_P1;SDS_P2;PMS_P1;PMS_P2;Temp;Humidity;BMP_temperature;BMP_pressure;BME280_temperature;BME280_humidity;BME280_pressure;Samples;Min_cycle;Max_cycle;Signal;HPM_P1;HPM_P2
2022/11/29 00:01:05;;;;;;;122.85;26.00;;;8.80;99.90;;;;;;7378245;19;20920;-48
2022/11/29 00:03:32;;;;;;;113.43;24.52;;;8.80;99.90;;;;;;7374322;19;20363;-45
2022/11/29 00:06:07;;;;;;;122.50;26.30;;;8.80;99.90;;;;;;7379069;19;20102;-48
2022/11/29 00:08:33;;;;;;;124.55;26.02;;;8.80;99.90;;;;;;7379766;19;20014;-45
2022/11/29 00:11:09;;;;;;;122.68;25.35;;;8.80;99.90;;;;;;7373315;19;20114;-44
2022/11/29 00:13:35;;;;;;;108.18;22.95;;;8.80;99.90;;;;;;7377721;19;20022;-51
2022/11/29 00:16:07;;;;;;;109.40;25.52;;;8.80;99.90;;;;;;7223267;19;2986831;-50
2022/11/29 00:18:33;;;;;;;;;;;8.80;99.90;;;;;;7381752;19;20017;-47
2022/11/29 00:21:03;;;;;;;105.85;23.83;;;8.80;99.90;;;;;;7377167;19;19918;-45
2022/11/29 00:23:29;;;;;;;125.97;23.80;;;8.80;99.90;;;;;;7379552;19;20038;-46
2022/11/29 00:26:02;;;;;;;118.75;23.48;;;8.80;99.90;;;;;;7379084;19;20018;-45
2022/11/29 00:28:28;;;;;;;127.25;24.02;;;8.80;99.90;;;;;;7377295;19;20014;-47
2022/11/29 00:30:55;;;;;;;117.22;24.30;;;8.80;99.90;;;;;;7376998;19;20051;-45
2022/11/29 00:33:21;;;;;;;126.47;24.42;;;8.80;99.90;;;;;;7379605;19;20018;-48
2022/11/29 00:35:47;;;;;;;133.50;25.90;;;8.80;99.90;;;;;;7382113;19;20026;-46
2022/11/29 00:38:13;;;;;;;137.55;24.60;;;8.80;99.90;;;;;;7380806;19;20025;-46
2022/11/29 00:40:41;;;;;;;145.23;25.60;;;8.80;99.90;;;;;;7379920;19;20018;-47
2022/11/29 00:43:07;;;;;;;133.43;25.80;;;8.80;99.90;;;;;;7379084;19;20026;-45
2022/11/29 00:45:34;;;;;;;156.20;25.63;;;8.80;99.90;;;;;;7382945;19;20065;-46
2022/11/29 00:48:00;;;;;;;174.10;25.85;;;8.80;99.90;;;;;;7379887;19;20347;-48
2022/11/29 00:50:26;;;;;;;171.75;25.80;;;8.80;99.90;;;;;;7380512;19;20022;-45
2022/11/29 00:52:52;;;;;;;168.63;25.58;;;8.80;99.90;;;;;;7378029;19;20521;-47
2022/11/29 00:55:18;;;;;;;135.65;24.85;;;8.80;99.90;;;;;;7379733;19;20077;-49
2022/11/29 00:57:45;;;;;;;146.57;26.15;;;8.80;99.90;;;;;;7382229;19;20014;-47
2022/11/29 01:00:11;;;;;;;133.98;24.73;;;8.80;99.90;;;;;;7378151;19;20026;-49
2022/11/29 01:02:38;;;;;;;148.80;25.98;;;8.80;99.90;;;;;;7378791;19;20568;-49
2022/11/29 01:05:04;;;;;;;135.07;26.13;;;8.80;99.90;;;;;;7379843;19;20646;-45
2022/11/29 01:07:30;;;;;;;147.40;24.63;;;8.80;99.90;;;;;;7380659;19;20446;-45
2022/11/29 01:09:56;;;;;;;169.10;25.88;;;8.80;99.90;;;;;;7379071;19;20019;-44
2022/11/29 01:12:23;;;;;;;176.60;27.90;;;8.80;99.90;;;;;;7377003;19;20361;-47
2022/11/29 01:14:49;;;;;;;171.98;25.98;;;8.80;99.90;;;;;;7380061;19;20050;-50
2022/11/29 01:17:15;;;;;;;200.00;29.25;;;8.80;99.90;;;;;;7376366;19;20074;-49
2022/11/29 01:19:41;;;;;;;170.68;28.17;;;8.80;99.90;;;;;;7377265;19;20025;-47
2022/11/29 01:22:07;;;;;;;164.88;27.15;;;8.80;99.90;;;;;;7378075;19;20086;-50
2022/11/29 01:24:34;;;;;;;204.65;27.90;;;8.80;99.90;;;;;;7375247;19;20025;-51
2022/11/29 01:27:00;;;;;;;186.48;29.25;;;8.80;99.90;;;;;;7377237;19;20025;-48
2022/11/29 01:29:26;;;;;;;206.48;29.13;;;8.80;99.90;;;;;;7376945;19;20035;-47
2022/11/29 01:31:52;;;;;;;191.27;28.58;;;8.80;99.90;;;;;;7375685;19;20022;-50
2022/11/29 01:34:19;;;;;;;187.30;28.70;;;8.80;99.90;;;;;;7375184;19;20015;-50
2022/11/29 01:36:45;;;;;;;188.23;31.52;;;8.80;99.90;;;;;;7371302;19;20472;-49
2022/11/29 01:39:11;;;;;;;202.27;28.90;;;8.80;99.90;;;;;;7376232;19;20089;-47
2022/11/29 01:41:38;;;;;;;163.05;28.50;;;8.80;99.90;;;;;;7377759;19;20018;-46
2022/11/29 01:44:10;;;;;;;179.68;30.38;;;8.80;99.90;;;;;;7377179;19;20587;-49
2022/11/29 01:46:42;;;;;;;187.82;28.88;;;8.80;99.90;;;;;;7375302;19;20030;-48
2022/11/29 01:49:14;;;;;;;151.50;25.90;;;8.80;99.90;;;;;;7373528;19;20035;-48
2022/11/29 01:51:44;;;;;;;186.02;28.67;;;8.70;99.90;;;;;;7374514;19;20022;-47
2022/11/29 01:54:12;;;;;;;152.23;26.70;;;8.80;99.90;;;;;;7372918;19;20032;-49
2022/11/29 01:56:39;;;;;;;180.77;28.67;;;8.80;99.90;;;;;;7376853;19;20065;-48
2022/11/29 01:59:10;;;;;;;231.98;31.30;;;8.80;99.90;;;;;;7377438;19;20025;-49
2022/11/29 02:01:36;;;;;;;241.88;32.63;;;8.80;99.90;;;;;;7374870;19;20036;-47
2022/11/29 02:04:04;;;;;;;213.18;29.92;;;8.70;99.90;;;;;;7374440;19;20022;-48
2022/11/29 02:06:30;;;;;;;188.38;28.95;;;8.70;99.90;;;;;;7375461;19;20505;-48
2022/11/29 02:08:57;;;;;;;222.00;30.10;;;8.80;99.90;;;;;;7379258;19;20022;-47
2022/11/29 02:11:53;;;;;;;215.35;30.33;;;8.80;99.90;;;;;;7370299;19;20023;-48
2022/11/29 02:14:20;;;;;;;236.38;29.42;;;8.70;99.90;;;;;;7369037;19;20023;-49
2022/11/29 02:16:54;;;;;;;196.25;28.02;;;8.70;99.90;;;;;;7374028;19;20415;-48
2022/11/29 02:19:39;;;;;;;182.07;28.25;;;8.70;99.90;;;;;;7373778;19;20328;-49
2022/11/29 02:22:13;;;;;;;186.50;27.15;;;8.60;99.90;;;;;;7375467;19;20022;-47
2022/11/29 02:24:48;;;;;;;206.45;28.95;;;8.60;99.90;;;;;;7375604;19;20486;-49
2022/11/29 02:27:33;;;;;;;172.95;25.45;;;8.60;99.90;;;;;;7374790;19;20077;-49
2022/11/29 02:29:59;;;;;;;174.98;26.55;;;8.60;99.90;;;;;;7378239;19;20357;-48
2022/11/29 02:32:40;;;;;;;133.40;24.52;;;8.60;99.90;;;;;;7374686;19;20019;-48
2022/11/29 02:35:27;;;;;;;145.07;25.25;;;8.50;99.90;;;;;;7378247;19;20018;-51
2022/11/29 02:38:23;;;;;;;133.32;23.67;;;8.50;99.90;;;;;;7376875;19;20014;-47
2022/11/29 02:41:16;;;;;;;164.02;25.88;;;8.50;99.90;;;;;;7374179;19;20482;-47
2022/11/29 02:44:05;;;;;;;134.70;24.95;;;8.50;99.90;;;;;;7373323;19;20085;-49
2022/11/29 02:46:50;;;;;;;134.85;24.02;;;8.50;99.90;;;;;;7374887;19;20025;-46
2022/11/29 02:49:38;;;;;;;168.35;26.60;;;8.50;99.90;;;;;;7374380;19;20021;-47
2022/11/29 02:52:10;;;;;;;179.15;25.08;;;8.50;99.90;;;;;;7375508;19;20038;-48
2022/11/29 02:55:19;;;;;;;193.63;27.60;;;8.40;99.90;;;;;;7383546;19;20021;-48
2022/11/29 02:58:16;;;;;;;147.73;22.88;;;8.40;99.90;;;;;;7381689;19;20032;-48
2022/11/29 03:01:06;;;;;;;158.77;23.30;;;8.40;99.90;;;;;;7381926;19;20085;-51
2022/11/29 03:03:48;;;;;;;171.95;24.90;;;8.40;99.90;;;;;;7379290;19;20018;-48
2022/11/29 03:06:35;;;;;;;147.30;23.50;;;8.40;99.90;;;;;;7383620;19;20027;-48
2022/11/29 03:09:25;;;;;;;128.20;22.70;;;8.40;99.90;;;;;;7382142;19;20034;-49
2022/11/29 03:12:29;;;;;;;118.68;22.75;;;8.30;99.90;;;;;;7379425;19;20025;-48
2022/11/29 03:15:17;;;;;;;145.13;22.80;;;8.30;99.90;;;;;;7382022;19;20521;-50
2022/11/29 03:18:00;;;;;;;124.15;22.58;;;8.30;99.90;;;;;;7380051;19;20029;-48
2022/11/29 03:21:02;;;;;;;109.93;21.60;;;8.30;99.90;;;;;;7381196;19;20408;-48
2022/11/29 03:23:40;;;;;;;202.85;26.45;;;8.20;99.90;;;;;;7381315;19;20044;-51
2022/11/29 03:26:12;;;;;;;127.70;22.10;;;8.20;99.90;;;;;;7382569;19;20023;-47
2022/11/29 03:29:06;;;;;;;129.40;23.95;;;8.20;99.90;;;;;;7382327;19;20022;-52
2022/11/29 03:31:48;;;;;;;174.52;24.92;;;8.20;99.90;;;;;;7379862;19;20018;-47
2022/11/29 03:34:48;;;;;;;167.25;24.95;;;8.20;99.90;;;;;;7380845;19;20046;-49
2022/11/29 03:37:24;;;;;;;202.82;25.80;;;8.10;99.90;;;;;;7380817;19;20034;-51
2022/11/29 03:40:04;;;;;;;176.98;24.80;;;8.10;99.90;;;;;;7380203;19;20081;-50
2022/11/29 03:42:51;;;;;;;153.02;23.50;;;8.10;99.90;;;;;;7381697;19;20389;-47
2022/11/29 03:45:42;;;;;;;173.32;24.73;;;8.00;99.90;;;;;;7378543;19;20022;-48
2022/11/29 03:48:32;;;;;;;193.27;25.15;;;8.00;99.90;;;;;;7380519;19;20486;-46
2022/11/29 03:51:09;;;;;;;125.07;22.92;;;8.00;99.90;;;;;;7381539;19;20025;-48
2022/11/29 03:53:43;;;;;;;135.23;21.50;;;7.90;99.90;;;;;;7379993;19;20022;-47
2022/11/29 03:56:31;;;;;;;114.07;21.75;;;7.90;99.90;;;;;;7379970;19;20035;-47
2022/11/29 03:59:06;;;;;;;117.75;21.20;;;7.90;99.90;;;;;;7380048;19;20024;-46
2022/11/29 04:02:05;;;;;;;125.13;22.88;;;7.90;99.90;;;;;;7381511;19;20340;-48
2022/11/29 04:04:50;;;;;;;137.98;23.15;;;7.90;99.90;;;;;;7373645;19;20027;-47
2022/11/29 04:07:47;;;;;;;110.70;20.85;;;7.90;99.90;;;;;;7377608;19;20011;-48
2022/11/29 04:10:42;;;;;;;98.45;19.85;;;7.90;99.90;;;;;;7380293;19;20011;-45
2022/11/29 04:13:26;;;;;;;149.13;22.92;;;7.90;99.90;;;;;;7380992;19;20018;-45
2022/11/29 04:16:10;;;;;;;121.25;21.73;;;7.90;99.90;;;;;;7379839;19;20041;-45
2022/11/29 04:19:05;;;;;;;126.50;21.48;;;7.90;99.90;;;;;;7380179;19;20022;-46
2022/11/29 04:21:40;;;;;;;136.52;22.48;;;7.90;99.90;;;;;;7380070;19;20022;-46
2022/11/29 04:25:01;;;;;;;153.98;23.90;;;7.90;99.90;;;;;;7382158;19;20489;-45
2022/11/29 04:27:33;;;;;;;151.07;23.48;;;7.90;99.90;;;;;;7378194;19;20533;-46
2022/11/29 04:30:10;;;;;;;138.07;22.25;;;7.90;99.90;;;;;;7379354;19;20372;-46
2022/11/29 04:33:04;;;;;;;133.25;22.48;;;7.80;99.90;;;;;;7381596;19;20015;-49
2022/11/29 04:35:46;;;;;;;124.45;23.15;;;7.80;99.90;;;;;;7382274;19;20010;-50
2022/11/29 04:38:30;;;;;;;153.82;23.60;;;7.90;99.90;;;;;;7382266;19;20032;-50
2022/11/29 04:41:21;;;;;;;192.35;23.50;;;7.80;99.90;;;;;;7380518;19;20033;-45
2022/11/29 04:43:50;;;;;;;212.27;24.63;;;7.80;99.90;;;;;;7384112;19;20501;-45
2022/11/29 04:46:41;;;;;;;168.70;25.80;;;7.80;99.90;;;;;;7377873;19;20018;-47
2022/11/29 04:49:27;;;;;;;179.98;23.05;;;7.90;99.90;;;;;;7382629;19;20072;-45
2022/11/29 04:52:15;;;;;;;231.98;28.58;;;7.90;99.90;;;;;;7381074;19;20014;-45
2022/11/29 04:55:02;;;;;;;180.77;24.95;;;7.80;99.90;;;;;;7380289;19;20021;-46
2022/11/29 04:58:09;;;;;;;185.70;24.55;;;7.80;99.90;;;;;;7379163;19;20374;-46
2022/11/29 05:01:02;;;;;;;155.38;22.35;;;7.80;99.90;;;;;;7381056;19;20026;-46
2022/11/29 05:03:40;;;;;;;182.65;23.17;;;7.80;99.90;;;;;;7381678;19;20045;-44
2022/11/29 05:06:18;;;;;;;150.98;22.30;;;7.70;99.90;;;;;;7377893;19;20379;-45
2022/11/29 05:08:58;;;;;;;171.80;23.30;;;7.70;99.90;;;;;;7379470;19;20046;-44
2022/11/29 05:11:58;;;;;;;223.70;26.00;;;7.80;99.90;;;;;;7378628;19;20022;-47
2022/11/29 05:15:00;;;;;;;200.50;24.27;;;7.70;99.90;;;;;;7376787;19;20018;-45
2022/11/29 05:17:32;;;;;;;222.52;27.58;;;7.70;99.90;;;;;;7375740;19;20029;-47
2022/11/29 05:20:17;;;;;;;177.60;23.20;;;7.70;99.90;;;;;;7380966;19;20478;-45
2022/11/29 05:23:29;;;;;;;175.45;21.08;;;7.70;99.90;;;;;;7380098;19;20019;-48
2022/11/29 05:25:59;;;;;;;165.68;20.52;;;7.70;99.90;;;;;;7378851;19;20381;-47
2022/11/29 05:28:34;;;;;;;169.55;19.98;;;7.70;99.90;;;;;;7378668;19;20048;-49
2022/11/29 05:31:28;;;;;;;173.77;19.65;;;7.70;99.90;;;;;;7371155;19;20074;-46
2022/11/29 05:34:20;;;;;;;121.90;19.60;;;7.70;99.90;;;;;;7370890;19;20029;-50
2022/11/29 05:37:07;;;;;;;184.13;21.65;;;7.70;99.90;;;;;;7373008;19;20015;-46
2022/11/29 05:39:48;;;;;;;183.20;22.92;;;7.60;99.90;;;;;;7367014;19;20358;-47
2022/11/29 05:42:33;;;;;;;206.65;25.15;;;7.70;99.90;;;;;;7370192;19;20123;-47
2022/11/29 05:45:13;;;;;;;179.70;23.15;;;7.70;99.90;;;;;;7370502;19;20924;-47
2022/11/29 05:48:02;;;;;;;194.82;23.83;;;7.70;99.90;;;;;;7369547;19;20367;-50
2022/11/29 05:50:44;;;;;;;216.60;25.40;;;7.70;99.90;;;;;;7368056;19;20026;-52
2022/11/29 05:53:16;;;;;;;236.95;27.52;;;7.80;99.90;;;;;;7367584;19;20019;-50
2022/11/29 05:56:03;;;;;;;195.45;24.85;;;7.70;99.90;;;;;;7368374;19;20488;-50
2022/11/29 05:58:54;;;;;;;154.60;23.95;;;7.70;99.90;;;;;;7367985;19;20046;-49
2022/11/29 06:01:24;;;;;;;140.15;22.83;;;7.70;99.90;;;;;;7364231;19;20018;-53
2022/11/29 06:04:16;;;;;;;202.50;25.30;;;7.70;99.90;;;;;;7363334;19;20039;-46
2022/11/29 06:06:56;;;;;;;193.70;25.75;;;7.80;99.90;;;;;;7369864;19;20022;-48
2022/11/29 06:09:39;;;;;;;269.23;28.42;;;7.80;99.90;;;;;;7366310;19;20018;-49
2022/11/29 06:12:13;;;;;;;243.60;28.08;;;7.80;99.90;;;;;;7367561;19;20448;-50
2022/11/29 06:14:48;;;;;;;208.93;26.45;;;7.80;99.90;;;;;;7367898;19;20018;-52
2022/11/29 06:17:51;;;;;;;177.38;22.85;;;7.80;99.90;;;;;;7363917;19;20018;-50
2022/11/29 06:20:24;;;;;;;202.18;24.20;;;7.80;99.90;;;;;;7363910;19;20074;-50
2022/11/29 06:23:23;;;;;;;209.10;24.67;;;7.70;99.90;;;;;;7369298;19;20018;-50
2022/11/29 06:26:15;;;;;;;270.08;31.33;;;7.80;99.90;;;;;;7370866;19;20033;-52
2022/11/29 06:29:03;;;;;;;196.05;25.25;;;7.70;99.90;;;;;;7375145;19;20018;-52
2022/11/29 06:31:38;;;;;;;215.45;26.70;;;7.80;99.90;;;;;;7374802;19;20018;-52
2022/11/29 06:34:19;;;;;;;251.75;29.33;;;7.80;99.90;;;;;;7373204;19;20124;-48
2022/11/29 06:36:58;;;;;;;224.90;27.67;;;7.80;99.90;;;;;;7376358;19;20022;-48
2022/11/29 06:39:24;;;;;;;152.57;24.17;;;7.80;99.90;;;;;;7375765;19;20018;-49
2022/11/29 06:41:51;;;;;;;162.43;23.15;;;7.80;99.90;;;;;;7370751;19;20014;-45
2022/11/29 06:44:17;;;;;;;180.18;25.77;;;7.80;99.90;;;;;;7375607;19;20510;-54
2022/11/29 06:46:55;;;;;;;250.07;29.17;;;7.70;99.90;;;;;;7372924;19;20374;-47
2022/11/29 06:49:27;;;;;;;157.07;24.90;;;7.80;99.90;;;;;;7371036;19;20010;-48
2022/11/29 06:52:14;;;;;;;216.40;28.17;;;7.80;99.90;;;;;;7366639;19;20123;-51
2022/11/29 06:54:53;;;;;;;154.75;25.38;;;7.80;99.90;;;;;;7375962;19;20022;-53
2022/11/29 06:57:54;;;;;;;125.53;21.50;;;7.80;99.90;;;;;;7371753;19;20506;-50
2022/11/29 07:00:25;;;;;;;182.63;25.08;;;7.70;99.90;;;;;;7373956;19;20018;-49
2022/11/29 07:03:13;;;;;;;155.85;24.85;;;7.70;99.90;;;;;;7372591;19;20038;-51
2022/11/29 07:05:40;;;;;;;158.52;25.27;;;7.70;99.90;;;;;;7373896;19;20074;-49
2022/11/29 07:08:17;;;;;;;217.68;27.67;;;7.70;99.90;;;;;;7372397;19;20050;-48
2022/11/29 07:10:48;;;;;;;206.98;27.25;;;7.70;99.90;;;;;;7370677;19;20281;-50
2022/11/29 07:13:16;;;;;;;229.03;28.03;;;7.70;99.90;;;;;;7372631;19;20046;-53
2022/11/29 07:16:24;;;;;;;150.90;24.33;;;7.70;99.90;;;;;;7369306;19;20015;-45
2022/11/29 07:19:08;;;;;;;192.02;27.08;;;7.70;99.90;;;;;;7369948;19;20346;-50
2022/11/29 07:22:01;;;;;;;196.38;27.20;;;7.70;99.90;;;;;;7367837;19;20038;-47
2022/11/29 07:24:30;;;;;;;181.60;25.80;;;7.70;99.90;;;;;;7370282;19;20351;-52
2022/11/29 07:27:18;;;;;;;103.78;20.92;;;7.60;99.90;;;;;;7370468;19;20059;-51
2022/11/29 07:30:04;;;;;;;115.20;21.70;;;7.60;99.90;;;;;;7370123;19;20021;-52
2022/11/29 07:32:54;;;;;;;151.10;22.98;;;7.60;99.90;;;;;;7373524;19;20019;-48
2022/11/29 07:35:31;;;;;;;124.47;22.20;;;7.60;99.90;;;;;;7369568;19;20015;-47
2022/11/29 07:38:10;;;;;;;109.63;22.05;;;7.60;99.90;;;;;;7370146;19;20396;-49
2022/11/29 07:40:39;;;;;;;162.82;23.38;;;7.60;99.90;;;;;;7371194;19;20035;-49
2022/11/29 07:43:21;;;;;;;116.95;22.77;;;7.60;99.90;;;;;;7373081;19;20623;-51
2022/11/29 07:45:49;;;;;;;182.40;26.83;;;7.60;99.90;;;;;;7371312;19;20462;-49
2022/11/29 07:48:16;;;;;;;148.70;23.42;;;7.60;99.90;;;;;;7370925;19;20358;-50
2022/11/29 07:50:44;;;;;;;103.50;21.98;;;7.60;99.90;;;;;;7372548;19;20114;-53
2022/11/29 07:53:19;;;;;;;105.82;20.85;;;7.60;99.90;;;;;;7371895;19;20010;-46
2022/11/29 07:55:46;;;;;;;106.53;21.20;;;7.60;99.90;;;;;;7372509;19;20018;-48
2022/11/29 07:58:13;;;;;;;97.97;19.98;;;7.60;99.90;;;;;;7372017;19;20490;-47
2022/11/29 08:00:43;;;;;;;86.10;20.90;;;7.60;99.90;;;;;;7368637;19;21442;-51
2022/11/29 08:03:10;;;;;;;134.40;23.67;;;7.60;99.90;;;;;;7369405;19;20501;-53
2022/11/29 08:05:37;;;;;;;125.07;22.98;;;7.60;99.90;;;;;;7368745;19;20007;-51
2022/11/29 08:08:04;;;;;;;125.85;22.25;;;7.60;99.90;;;;;;7369841;19;20014;-50
2022/11/29 08:10:30;;;;;;;107.30;22.15;;;7.60;99.90;;;;;;7367146;19;20043;-47
2022/11/29 08:12:56;;;;;;;97.68;19.65;;;7.60;99.90;;;;;;7368124;19;20326;-51
2022/11/29 08:15:24;;;;;;;121.63;21.02;;;7.60;99.90;;;;;;7368240;19;20014;-46
2022/11/29 08:17:52;;;;;;;139.75;22.95;;;7.60;99.90;;;;;;7367325;19;20442;-48
2022/11/29 08:20:18;;;;;;;142.13;23.55;;;7.50;99.90;;;;;;7371084;19;20042;-48
2022/11/29 08:22:53;;;;;;;96.03;21.02;;;7.60;99.90;;;;;;7369537;19;20019;-45
2022/11/29 08:25:19;;;;;;;76.20;18.52;;;7.60;99.90;;;;;;7368208;19;20035;-46
2022/11/29 08:27:45;;;;;;;82.28;20.23;;;7.60;99.90;;;;;;7370439;19;20762;-46
2022/11/29 08:30:12;;;;;;;117.72;20.52;;;7.60;99.90;;;;;;7368762;19;20612;-50
2022/11/29 08:32:38;;;;;;;103.57;20.92;;;7.60;99.90;;;;;;7368126;19;20015;-49
2022/11/29 08:35:04;;;;;;;80.60;19.77;;;7.60;99.90;;;;;;7370880;19;20063;-49
2022/11/29 08:37:31;;;;;;;65.38;18.10;;;7.60;99.90;;;;;;7368604;19;20491;-50
2022/11/29 08:39:57;;;;;;;71.35;19.33;;;7.60;99.90;;;;;;7368537;19;20015;-49
2022/11/29 08:42:24;;;;;;;110.60;21.23;;;7.60;99.90;;;;;;7369405;19;20022;-47
2022/11/29 08:44:50;;;;;;;91.03;20.80;;;7.60;99.90;;;;;;7368506;19;20585;-51
2022/11/29 08:47:34;;;;;;;76.93;19.05;;;7.60;99.90;;;;;;7371236;19;20027;-51
2022/11/29 08:50:03;;;;;;;79.75;19.60;;;7.70;99.90;;;;;;7368906;19;20022;-46
2022/11/29 08:55:21;;;;;;;77.28;19.23;;;7.70;99.90;;;;;;7369383;19;20420;-49
2022/11/29 08:57:48;;;;;;;64.90;18.90;;;7.70;99.90;;;;;;7368902;19;20019;-51
2022/11/29 09:00:16;;;;;;;67.45;19.10;;;7.70;99.90;;;;;;7368520;19;20477;-50
2022/11/29 09:02:42;;;;;;;61.72;19.02;;;7.70;99.90;;;;;;7367947;19;20014;-50
2022/11/29 09:05:09;;;;;;;57.65;17.75;;;7.70;99.90;;;;;;7371715;19;20032;-49
2022/11/29 09:07:37;;;;;;;54.10;19.65;;;7.80;99.90;;;;;;7364839;19;20034;-46
2022/11/29 09:10:06;;;;;;;47.08;17.25;;;7.80;99.90;;;;;;7367182;19;20086;-52
2022/11/29 09:12:35;;;;;;;60.03;17.45;;;7.80;99.90;;;;;;7364420;19;20014;-46
2022/11/29 09:15:03;;;;;;;51.70;17.33;;;7.80;99.90;;;;;;7368194;19;20029;-52
2022/11/29 09:17:30;;;;;;;49.10;16.35;;;7.90;99.90;;;;;;7366847;19;20014;-51
2022/11/29 09:19:56;;;;;;;47.53;15.98;;;7.90;99.90;;;;;;7369495;19;20034;-48
2022/11/29 09:22:22;;;;;;;45.05;17.35;;;7.90;99.90;;;;;;7367544;19;20063;-52
2022/11/29 09:24:48;;;;;;;41.92;17.30;;;7.90;99.90;;;;;;7368651;19;20074;-48
2022/11/29 09:27:16;;;;;;;43.55;17.02;;;7.90;99.90;;;;;;7367879;19;20098;-49
2022/11/29 09:29:42;;;;;;;45.83;16.52;;;8.00;99.90;;;;;;7366278;19;20017;-49
2022/11/29 09:32:08;;;;;;;46.03;16.80;;;8.00;99.90;;;;;;7366606;19;21481;-48
2022/11/29 09:34:35;;;;;;;42.60;16.65;;;8.00;99.90;;;;;;7365070;19;20020;-51
2022/11/29 09:37:01;;;;;;;43.88;17.00;;;8.00;99.90;;;;;;7368691;19;20018;-52
2022/11/29 09:39:27;;;;;;;40.95;15.73;;;8.00;99.90;;;;;;7366085;19;20018;-52
2022/11/29 09:42:34;;;;;;;34.80;16.00;;;8.00;99.90;;;;;;7367736;19;20505;-51
2022/11/29 09:45:13;;;;;;;32.65;15.52;;;8.10;99.90;;;;;;7367472;19;20018;-48
2022/11/29 09:47:56;;;;;;;32.95;14.05;;;8.10;99.90;;;;;;7365077;19;20014;-47
2022/11/29 09:50:41;;;;;;;37.33;15.07;;;8.20;99.90;;;;;;7367580;19;20537;-50
2022/11/29 09:53:20;;;;;;;32.67;14.57;;;8.20;99.90;;;;;;7368238;19;20015;-53
2022/11/29 09:56:11;;;;;;;32.85;14.80;;;8.20;99.90;;;;;;7368685;19;20018;-52
2022/11/29 09:58:49;;;;;;;28.17;13.10;;;8.20;99.90;;;;;;7365356;19;20025;-52
2022/11/29 10:01:36;;;;;;;31.38;13.75;;;8.20;99.90;;;;;;7372840;19;20015;-53
2022/11/29 10:04:18;;;;;;;33.05;14.20;;;8.20;99.90;;;;;;7372638;19;20018;-47
2022/11/29 10:06:52;;;;;;;36.00;15.48;;;8.20;99.90;;;;;;7372613;19;20479;-50
2022/11/29 10:09:37;;;;;;;28.10;13.27;;;8.20;99.90;;;;;;7374193;19;20884;-51
2022/11/29 10:12:10;;;;;;;29.48;13.25;;;8.20;99.90;;;;;;7372067;19;20343;-45
2022/11/29 10:14:50;;;;;;;28.48;12.80;;;8.20;99.90;;;;;;7373192;19;20015;-51
2022/11/29 10:17:38;;;;;;;25.30;12.40;;;8.20;99.90;;;;;;7373284;19;20086;-50
2022/11/29 10:20:37;;;;;;;28.63;13.05;;;8.20;99.90;;;;;;7374985;19;20014;-50
2022/11/29 10:23:24;;;;;;;23.13;12.55;;;8.30;99.90;;;;;;7372177;19;20015;-50
2022/11/29 10:25:53;;;;;;;23.48;12.82;;;8.30;99.90;;;;;;7378130;19;20365;-49
2022/11/29 10:28:32;;;;;;;29.92;13.07;;;8.30;99.90;;;;;;7375539;19;20357;-50
2022/11/29 10:31:13;;;;;;;24.25;12.23;;;8.30;99.90;;;;;;7375215;19;20413;-45
2022/11/29 10:33:40;;;;;;;22.75;11.07;;;8.30;99.90;;;;;;7372241;19;20078;-49
2022/11/29 10:36:35;;;;;;;25.75;12.18;;;8.40;99.90;;;;;;7375309;19;20018;-49
2022/11/29 10:39:12;;;;;;;25.13;11.50;;;8.40;99.90;;;;;;7376428;19;20038;-46
2022/11/29 10:41:38;;;;;;;23.75;12.48;;;8.50;99.90;;;;;;7372550;19;20038;-45
2022/11/29 10:44:04;;;;;;;34.70;19.42;;;8.50;99.90;;;;;;7374529;19;20749;-49
2022/11/29 10:46:35;;;;;;;21.73;12.23;;;8.50;99.90;;;;;;7371538;19;20031;-49
2022/11/29 10:49:09;;;;;;;20.63;11.07;;;8.60;99.90;;;;;;7374536;19;20014;-46
2022/11/29 10:51:35;;;;;;;27.35;13.65;;;8.60;99.90;;;;;;7371845;19;20034;-50
2022/11/29 10:54:33;;;;;;;23.00;11.27;;;8.70;99.90;;;;;;7372136;19;20496;-47
2022/11/29 10:57:00;;;;;;;28.55;12.80;;;8.70;99.90;;;;;;7375082;19;20019;-51
2022/11/29 10:59:29;;;;;;;24.77;10.98;;;8.70;99.90;;;;;;7370274;19;20021;-50
2022/11/29 11:01:57;;;;;;;20.08;10.48;;;8.70;99.90;;;;;;7375216;19;20019;-51
2022/11/29 11:04:41;;;;;;;17.55;10.60;;;8.70;99.90;;;;;;7372183;19;20018;-48
2022/11/29 11:07:26;;;;;;;22.67;11.93;;;8.80;99.90;;;;;;7375698;19;20537;-50
2022/11/29 11:09:56;;;;;;;23.35;9.88;;;8.80;99.90;;;;;;7370978;19;20021;-48
2022/11/29 11:12:27;;;;;;;17.75;9.07;;;8.70;99.90;;;;;;7365126;19;20106;-46
2022/11/29 11:15:28;;;;;;;18.38;10.25;;;8.70;99.90;;;;;;7371497;19;20022;-51
2022/11/29 11:18:03;;;;;;;18.65;9.77;;;8.70;99.90;;;;;;7368304;19;20017;-53
2022/11/29 11:20:33;;;;;;;21.60;9.98;;;8.70;99.90;;;;;;7374346;19;20018;-49
2022/11/29 11:23:03;;;;;;;20.42;8.45;;;8.70;99.90;;;;;;7372815;19;20021;-51
2022/11/29 11:25:39;;;;;;;21.90;9.40;;;8.70;99.90;;;;;;7371580;19;20030;-50
2022/11/29 11:28:28;;;;;;;17.77;8.85;;;8.70;99.90;;;;;;7371566;19;20022;-44
2022/11/29 11:30:59;;;;;;;19.40;10.00;;;8.70;99.90;;;;;;7374096;19;20390;-46
2022/11/29 11:33:31;;;;;;;17.23;8.50;;;8.70;99.90;;;;;;7371141;19;20018;-45
2022/11/29 11:36:05;;;;;;;18.35;8.60;;;8.70;99.90;;;;;;7374512;19;20052;-46
2022/11/29 11:38:37;;;;;;;17.35;8.50;;;8.80;99.90;;;;;;7372633;19;20016;-49
2022/11/29 11:41:18;;;;;;;15.18;8.48;;;8.80;99.90;;;;;;7370758;19;20011;-44
2022/11/29 11:44:12;;;;;;;21.80;8.55;;;8.80;99.90;;;;;;7368883;19;20107;-45
2022/11/29 11:46:47;;;;;;;16.85;8.48;;;8.90;99.90;;;;;;7373537;19;20018;-51
2022/11/29 11:49:29;;;;;;;19.60;9.05;;;8.90;99.90;;;;;;7374743;19;20031;-51
2022/11/29 11:51:58;;;;;;;16.67;9.95;;;9.00;99.90;;;;;;7371809;19;20015;-53
2022/11/29 11:54:26;;;;;;;22.48;9.85;;;9.00;99.90;;;;;;7368999;19;20023;-52
2022/11/29 11:56:52;;;;;;;15.48;9.50;;;9.00;99.90;;;;;;7369563;19;20757;-47
2022/11/29 11:59:21;;;;;;;18.80;10.43;;;9.00;99.90;;;;;;7372969;19;20018;-53
2022/11/29 12:01:47;;;;;;;19.63;8.98;;;9.00;99.90;;;;;;7372111;19;20014;-52
2022/11/29 12:04:16;;;;;;;17.15;10.23;;;9.00;99.90;;;;;;7371621;19;20015;-52
2022/11/29 12:06:54;;;;;;;17.63;9.48;;;9.00;99.90;;;;;;7372450;19;20011;-47
2022/11/29 12:09:39;;;;;;;20.20;10.70;;;9.00;99.90;;;;;;7371083;19;20652;-50
2022/11/29 12:12:19;;;;;;;18.05;9.57;;;9.00;99.90;;;;;;7369177;19;20026;-50
2022/11/29 12:14:58;;;;;;;22.20;10.70;;;9.10;99.90;;;;;;7372345;19;20019;-50
2022/11/29 12:17:36;;;;;;;23.20;10.48;;;9.10;99.90;;;;;;7368385;19;20481;-47
2022/11/29 12:20:09;;;;;;;21.38;10.20;;;9.10;99.90;;;;;;7369984;19;20014;-50
2022/11/29 12:23:12;;;;;;;19.65;10.70;;;9.20;99.90;;;;;;7368456;19;20018;-46
2022/11/29 12:25:48;;;;;;;17.35;10.48;;;9.20;99.90;;;;;;7370010;19;20519;-46
2022/11/29 12:28:17;;;;;;;21.17;10.60;;;9.30;99.90;;;;;;7367141;19;20484;-46
2022/11/29 12:30:54;;;;;;;25.85;11.32;;;9.40;99.90;;;;;;7367575;19;20023;-49
2022/11/29 12:33:40;;;;;;;23.02;10.68;;;9.40;99.90;;;;;;7371229;19;20018;-50
2022/11/29 12:36:17;;;;;;;19.15;9.65;;;9.40;99.90;;;;;;7371842;19;20442;-49
2022/11/29 12:38:52;;;;;;;23.63;10.38;;;9.50;99.90;;;;;;7367864;19;20047;-47
2022/11/29 12:41:45;;;;;;;27.02;10.55;;;9.50;99.90;;;;;;7367994;19;20018;-51
2022/11/29 12:44:11;;;;;;;28.25;10.73;;;9.50;99.90;;;;;;7369361;19;20011;-47
2022/11/29 12:46:39;;;;;;;21.38;9.73;;;9.50;99.90;;;;;;7366176;19;20498;-46
2022/11/29 12:49:23;;;;;;;20.90;10.13;;;9.60;99.90;;;;;;7369056;19;20766;-53
2022/11/29 12:51:55;;;;;;;29.50;12.05;;;9.60;99.90;;;;;;7367168;19;20022;-52
2022/11/29 12:54:34;;;;;;;25.40;10.77;;;9.60;99.90;;;;;;7367527;19;20039;-52
2022/11/29 12:57:34;;;;;;;27.17;11.40;;;9.60;99.90;;;;;;7368597;19;20026;-50
2022/11/29 13:00:21;;;;;;;20.30;10.40;;;9.60;99.90;;;;;;7366742;19;20434;-46
2022/11/29 13:03:12;;;;;;;28.95;11.07;;;9.60;99.90;;;;;;7369359;19;20027;-46
2022/11/29 13:06:01;;;;;;;26.38;11.85;;;9.60;99.90;;;;;;7365059;19;20025;-47
2022/11/29 13:08:46;;;;;;;23.63;11.13;;;9.60;99.90;;;;;;7365331;19;20029;-51
2022/11/29 13:11:26;;;;;;;29.80;11.70;;;9.50;99.90;;;;;;7367106;19;20015;-48
2022/11/29 13:14:03;;;;;;;29.27;12.50;;;9.60;99.90;;;;;;7368648;19;20398;-51
2022/11/29 13:16:57;;;;;;;23.70;12.07;;;9.60;99.90;;;;;;7366950;19;20041;-51
2022/11/29 13:19:32;;;;;;;27.55;12.52;;;9.60;99.90;;;;;;7365714;19;20473;-53
2022/11/29 13:22:06;;;;;;;30.50;12.52;;;9.60;99.90;;;;;;7370564;19;20021;-53
2022/11/29 13:24:37;;;;;;;22.50;11.70;;;9.50;99.90;;;;;;7367832;19;20386;-53